Riceton, Canada
Current Conditions -  °F | °C
As of 8:25 AM on Sunday 23 Nov 2014 (Local Time) from CYQR Reporting Station
Blowing Snow Blowing Snow  
Wind Chill: -6°   Ceiling: 1500
Heat Index: 12°   Visibility: 2mi
Dew Point:   Wind: 20mph
Humidity: 85%   Direction: 330°NNW
Pressure: 29.66"   Gusts: 29mph
Location:  50.1°N, 104.32°W
Report Text: CYQR 231425Z 33017G25KT 2SM -SHSN BR DRSN BKN015 OVC034 M11/M13 A2966 RMK SC6SC2 SLP076
Loading
Personal Weather Stations






























Interactive Weather Map New forecast layout! Learn more

10-Day Weather Forecast

Advertisements
Track Severe Weather on mobile